createdAt,value
2017-07-15T06:34:33.903Z,8.13
2017-07-15T06:37:01.469Z,8.40
2017-07-15T06:39:29.825Z,7.90
2017-07-15T06:41:57.407Z,7.67
2017-07-15T06:44:24.990Z,8.43
2017-07-15T06:46:52.575Z,9.00
2017-07-15T06:49:20.237Z,8.20
2017-07-15T06:51:47.794Z,9.03
2017-07-15T06:54:16.110Z,9.03
2017-07-15T06:56:43.696Z,8.63
2017-07-15T06:59:11.244Z,7.60
2017-07-15T07:01:38.817Z,7.17
2017-07-15T07:04:06.402Z,7.40
2017-07-15T07:06:33.955Z,6.43
2017-07-15T07:09:01.572Z,6.00
2017-07-15T07:11:29.175Z,6.93
2017-07-15T07:13:56.723Z,6.23
2017-07-15T07:16:24.250Z,5.43
2017-07-15T07:18:53.590Z,5.93
2017-07-15T07:21:21.501Z,5.53
2017-07-15T07:23:49.849Z,5.20
2017-07-15T07:26:17.435Z,5.40
2017-07-15T07:28:45.141Z,5.10
2017-07-15T07:31:13.471Z,5.50
2017-07-15T07:33:41.035Z,4.50
2017-07-15T07:36:08.609Z,4.73
2017-07-15T07:38:36.196Z,4.70
2017-07-15T07:41:03.821Z,5.10
2017-07-15T07:43:31.382Z,4.50
2017-07-15T07:45:58.914Z,4.50
2017-07-15T07:48:27.300Z,3.90
2017-07-15T07:50:55.607Z,4.33
2017-07-15T07:53:23.156Z,3.80
2017-07-15T07:55:50.778Z,3.60
2017-07-15T07:58:19.344Z,3.83
2017-07-15T08:00:47.029Z,4.20
2017-07-15T08:03:21.550Z,4.10
2017-07-15T08:05:55.493Z,3.90
2017-07-15T08:08:23.974Z,4.40
2017-07-15T08:10:52.604Z,4.57
2017-07-15T08:13:20.458Z,4.57
2017-07-15T08:15:49.161Z,4.53
2017-07-15T08:18:16.718Z,4.53
2017-07-15T08:20:44.705Z,5.00
2017-07-15T08:23:16.196Z,4.60
2017-07-15T08:25:45.297Z,4.73
2017-07-15T08:28:13.172Z,4.53
2017-07-15T08:30:41.424Z,4.30
2017-07-15T08:33:09.013Z,5.07
2017-07-15T08:35:39.376Z,4.97
2017-07-15T08:38:09.409Z,4.43
2017-07-15T08:40:40.307Z,5.57
2017-07-15T08:43:07.999Z,5.30
2017-07-15T08:45:40.648Z,5.30
2017-07-15T08:48:10.814Z,5.10
2017-07-15T08:50:39.323Z,5.00
2017-07-15T08:53:07.733Z,5.10
2017-07-15T08:55:38.226Z,5.43
2017-07-15T08:58:06.298Z,4.80
2017-07-15T09:00:41.481Z,4.73
2017-07-15T09:03:09.952Z,4.60
2017-07-15T09:05:39.300Z,4.20
2017-07-15T09:08:10.630Z,5.33
2017-07-15T09:10:38.518Z,5.57
2017-07-15T09:13:06.245Z,4.53
2017-07-15T09:15:33.945Z,5.47
2017-07-15T09:18:01.524Z,5.30
2017-07-15T09:20:29.091Z,4.53
2017-07-15T09:22:57.470Z,5.23
2017-07-15T09:25:25.022Z,4.33
2017-07-15T09:27:52.570Z,4.90
2017-07-15T09:30:20.164Z,5.30
2017-07-15T09:32:47.726Z,5.07
2017-07-15T09:35:15.262Z,5.07
2017-07-15T09:37:42.832Z,5.40
2017-07-15T09:40:10.412Z,5.13
2017-07-15T09:42:37.964Z,4.93
2017-07-15T09:45:05.514Z,5.00
2017-07-15T09:47:33.104Z,4.47
2017-07-15T09:50:00.646Z,4.33
2017-07-15T09:52:28.245Z,4.57
2017-07-15T09:54:56.601Z,4.90
2017-07-15T09:57:25.413Z,4.70
2017-07-15T09:59:52.964Z,4.87
2017-07-15T10:02:20.534Z,5.20
2017-07-15T10:04:48.097Z,4.90
2017-07-15T10:07:15.683Z,4.83
2017-07-15T10:09:43.227Z,5.90
2017-07-15T10:12:10.802Z,5.27
2017-07-15T10:14:38.400Z,5.57
2017-07-15T10:17:05.937Z,5.37
2017-07-15T10:19:35.103Z,5.93
2017-07-15T10:22:03.061Z,5.40
2017-07-15T10:24:30.591Z,6.43
2017-07-15T10:26:58.181Z,6.00
2017-07-15T10:29:25.822Z,5.53
2017-07-15T10:31:54.137Z,5.67
2017-07-15T10:34:21.680Z,5.90
2017-07-15T10:36:50.015Z,5.50
2017-07-15T10:39:17.584Z,5.73
2017-07-15T10:41:45.383Z,5.37
2017-07-15T10:44:14.947Z,6.00
2017-07-15T10:46:42.780Z,6.13
2017-07-15T10:49:10.592Z,6.13
2017-07-15T10:51:38.540Z,5.67
2017-07-15T10:54:06.420Z,5.40
2017-07-15T10:56:34.941Z,4.67
2017-07-15T10:59:03.398Z,5.70
2017-07-15T11:01:31.160Z,5.20
2017-07-15T11:03:58.765Z,5.63
2017-07-15T11:06:27.166Z,4.80
2017-07-15T11:08:54.721Z,4.80
2017-07-15T11:11:22.382Z,5.50
2017-07-15T11:13:50.946Z,4.90
2017-07-15T11:16:18.494Z,5.30
2017-07-15T11:18:46.075Z,5.03
2017-07-15T11:21:13.645Z,4.90
2017-07-15T11:23:41.175Z,5.67
2017-07-15T11:26:08.719Z,4.80
2017-07-15T11:28:37.113Z,5.93
2017-07-15T11:31:04.715Z,5.90
2017-07-15T11:33:32.264Z,5.00
2017-07-15T11:36:00.823Z,5.97
2017-07-15T11:38:28.395Z,4.77
2017-07-15T11:40:56.689Z,5.50
2017-07-15T11:43:25.090Z,6.23
2017-07-15T11:45:52.648Z,4.93
2017-07-15T11:48:20.271Z,5.10
2017-07-15T11:50:48.786Z,5.57
2017-07-15T11:53:18.019Z,4.90
2017-07-15T11:55:45.613Z,5.20
2017-07-15T11:58:13.197Z,5.20
2017-07-15T12:00:42.329Z,5.50
2017-07-15T12:03:09.871Z,5.77
2017-07-15T12:05:38.223Z,5.97
2017-07-15T12:08:06.001Z,4.90
2017-07-15T12:10:33.711Z,5.30
2017-07-15T12:13:03.595Z,5.30
2017-07-15T12:15:32.566Z,5.07
2017-07-15T12:18:00.378Z,5.13
2017-07-15T12:20:28.809Z,5.03
2017-07-15T12:22:56.643Z,4.60
2017-07-15T12:25:24.537Z,4.30
2017-07-15T12:27:52.418Z,4.93
2017-07-15T12:30:20.008Z,3.67
2017-07-15T12:32:47.765Z,4.30
2017-07-15T12:35:16.301Z,3.90
2017-07-15T12:37:43.968Z,3.93
2017-07-15T12:40:11.663Z,4.57
2017-07-15T12:42:39.490Z,4.40
2017-07-15T12:45:07.120Z,4.00
2017-07-15T12:47:34.893Z,3.57
2017-07-15T12:50:02.751Z,3.50
2017-07-15T12:52:30.317Z,3.90
2017-07-15T12:54:57.876Z,4.20
2017-07-15T12:57:25.496Z,4.00
2017-07-15T12:59:53.980Z,3.47
2017-07-15T13:02:21.740Z,3.33
2017-07-15T13:04:50.287Z,3.63
2017-07-15T13:07:17.884Z,3.43
2017-07-15T13:09:46.203Z,3.40
2017-07-15T13:12:14.927Z,3.63
2017-07-15T13:14:42.508Z,3.40
2017-07-15T13:17:10.064Z,3.07
2017-07-15T13:19:38.015Z,3.20
2017-07-15T13:22:05.662Z,3.40
2017-07-15T13:24:33.487Z,3.43
2017-07-15T13:27:01.110Z,3.20
2017-07-15T13:29:28.642Z,3.37
2017-07-15T13:31:56.481Z,3.77
2017-07-15T13:34:25.641Z,2.60
2017-07-15T13:36:53.205Z,3.20
2017-07-15T13:39:20.906Z,3.23
2017-07-15T13:41:48.782Z,3.23
2017-07-15T13:44:18.310Z,3.10
2017-07-15T13:46:46.776Z,2.97
2017-07-15T13:49:14.343Z,3.13
2017-07-15T13:51:41.902Z,3.03
2017-07-15T13:54:09.834Z,3.10
2017-07-15T13:56:39.206Z,3.17
2017-07-15T13:59:07.158Z,2.97
2017-07-15T14:01:34.746Z,3.10
2017-07-15T14:04:02.332Z,3.10
2017-07-15T14:06:30.681Z,3.40
2017-07-15T14:08:58.241Z,3.23
2017-07-15T14:11:25.832Z,2.90
2017-07-15T14:13:54.168Z,2.97
2017-07-15T14:16:21.721Z,2.90
2017-07-15T14:18:49.297Z,3.00
2017-07-15T14:21:19.243Z,3.50
2017-07-15T14:23:47.631Z,3.00
2017-07-15T14:26:15.544Z,3.10
2017-07-15T14:28:43.309Z,2.80
2017-07-15T14:31:11.478Z,2.70
2017-07-15T14:33:39.396Z,2.60
2017-07-15T14:36:07.833Z,2.80
2017-07-15T14:38:36.141Z,2.60
2017-07-15T14:41:03.777Z,2.60
2017-07-15T14:43:31.513Z,2.90
2017-07-15T14:45:59.407Z,2.50
2017-07-15T14:48:27.820Z,2.90
2017-07-15T14:50:55.461Z,2.43
2017-07-15T14:53:24.360Z,3.13
2017-07-15T14:55:51.970Z,2.80
2017-07-15T14:58:19.647Z,2.30
2017-07-15T15:00:47.457Z,2.63
2017-07-15T15:03:15.277Z,2.80
2017-07-15T15:05:42.851Z,2.57
2017-07-15T15:08:11.137Z,2.40
2017-07-15T15:10:38.742Z,2.33
2017-07-15T15:13:07.882Z,2.30
2017-07-15T15:15:35.604Z,2.60
2017-07-15T15:18:03.352Z,2.43
2017-07-15T15:20:32.129Z,2.77
2017-07-15T15:23:00.024Z,2.70
2017-07-15T15:25:27.862Z,2.40
2017-07-15T15:27:55.816Z,2.10
2017-07-15T15:30:23.508Z,2.53
2017-07-15T15:32:51.248Z,2.60
2017-07-15T15:35:18.882Z,2.13
2017-07-15T15:37:46.453Z,2.27
2017-07-15T15:40:14.764Z,2.20
2017-07-15T15:42:42.417Z,2.13
2017-07-15T15:45:10.769Z,2.17
2017-07-15T15:47:38.900Z,2.23
2017-07-15T15:50:07.815Z,2.00
2017-07-15T15:52:36.024Z,2.20
2017-07-15T15:55:03.878Z,2.20
2017-07-15T15:57:34.435Z,2.40
2017-07-15T16:00:03.055Z,2.10
2017-07-15T16:02:31.769Z,2.10
2017-07-15T16:04:59.837Z,2.23
2017-07-15T16:07:27.606Z,2.07
2017-07-15T16:09:55.820Z,2.10
2017-07-15T16:12:24.699Z,1.70
2017-07-15T16:14:52.556Z,2.00
2017-07-15T16:17:20.404Z,2.10
2017-07-15T16:19:48.162Z,1.90
2017-07-15T16:22:16.701Z,2.23
2017-07-15T16:24:44.557Z,1.87
2017-07-15T16:27:12.538Z,1.80
2017-07-15T16:29:48.297Z,1.90
2017-07-15T16:32:26.218Z,1.97
2017-07-15T16:34:56.209Z,2.30
2017-07-15T16:37:44.379Z,2.03
2017-07-15T16:40:16.763Z,2.00
2017-07-15T16:42:44.846Z,1.80
2017-07-15T16:45:12.712Z,1.80
2017-07-15T16:47:44.181Z,1.80
2017-07-15T16:50:12.454Z,1.80
2017-07-15T16:52:41.566Z,1.90
2017-07-15T16:55:09.162Z,1.70
2017-07-15T16:57:36.736Z,2.13
2017-07-15T17:00:04.279Z,1.90
2017-07-15T17:02:32.855Z,1.97
2017-07-15T17:05:00.453Z,1.93
2017-07-15T17:07:28.027Z,1.60
2017-07-15T17:09:56.631Z,1.70
2017-07-15T17:12:24.172Z,1.90
2017-07-15T17:14:51.733Z,1.60
2017-07-15T17:17:33.190Z,1.93
2017-07-15T17:20:00.766Z,1.90
2017-07-15T17:22:29.266Z,1.83
2017-07-15T17:24:56.903Z,1.70
2017-07-15T17:27:25.312Z,1.90
2017-07-15T17:29:52.831Z,1.60
2017-07-15T17:32:20.409Z,1.70
2017-07-15T17:34:47.960Z,1.80
2017-07-15T17:37:22.223Z,2.40
2017-07-15T17:39:50.845Z,1.90
2017-07-15T17:42:18.405Z,1.67
2017-07-15T17:44:45.979Z,1.60
2017-07-15T17:47:13.566Z,1.93
2017-07-15T17:49:41.932Z,1.93
2017-07-15T17:52:09.570Z,2.10
2017-07-15T17:54:37.157Z,2.73
2017-07-15T17:57:04.752Z,2.07
2017-07-15T17:59:34.376Z,2.30
2017-07-15T18:02:01.950Z,1.73
2017-07-15T18:04:29.536Z,2.20
2017-07-15T18:06:57.079Z,1.90
2017-07-15T18:09:24.917Z,2.20
2017-07-15T18:11:53.453Z,2.30
2017-07-15T18:14:21.221Z,1.80
2017-07-15T18:16:51.241Z,2.00
2017-07-15T18:19:18.923Z,1.80
2017-07-15T18:21:49.951Z,2.00
2017-07-15T18:24:17.540Z,2.10
2017-07-15T18:26:47.128Z,1.90
2017-07-15T18:29:18.914Z,2.47
2017-07-15T18:31:46.878Z,2.40
2017-07-15T18:34:14.535Z,2.10
2017-07-15T18:36:45.935Z,2.17
2017-07-15T18:39:16.974Z,1.90
2017-07-15T18:41:45.324Z,2.13
2017-07-15T18:44:13.013Z,2.00
2017-07-15T18:46:41.639Z,2.20
2017-07-15T18:49:09.207Z,3.37
2017-07-15T18:51:37.638Z,2.40
2017-07-15T18:54:06.142Z,2.10
2017-07-15T18:56:33.710Z,2.13
2017-07-15T18:59:03.085Z,1.63
2017-07-15T19:01:32.195Z,2.33
2017-07-15T19:03:59.795Z,2.03
2017-07-15T19:06:28.725Z,2.00
2017-07-15T19:08:57.284Z,2.00
2017-07-15T19:15:37.996Z,1.73
2017-07-15T19:18:06.984Z,2.07
2017-07-15T19:20:40.783Z,1.80
2017-07-15T19:23:08.641Z,1.50
2017-07-15T19:25:38.906Z,1.67
2017-07-15T19:28:09.906Z,2.17
2017-07-15T19:33:43.886Z,1.80
2017-07-15T19:45:06.449Z,2.33
2017-07-15T19:47:41.264Z,2.00
2017-07-15T19:53:17.387Z,1.80
2017-07-15T19:55:56.666Z,1.77
2017-07-15T20:10:15.997Z,2.10
2017-07-15T20:12:45.689Z,2.57
2017-07-15T20:15:17.665Z,2.13
2017-07-15T20:17:45.359Z,1.83
2017-07-15T20:20:24.333Z,1.97
2017-07-15T20:22:53.452Z,2.30
2017-07-15T20:25:24.492Z,2.50
2017-07-15T20:27:52.572Z,2.10
2017-07-15T20:33:49.300Z,1.70
2017-07-15T20:36:37.275Z,2.30
2017-07-15T20:39:21.139Z,2.10
2017-07-15T20:42:03.306Z,1.87
2017-07-15T20:53:51.820Z,2.33
2017-07-15T21:05:36.177Z,2.20
2017-07-15T21:14:36.266Z,2.37
2017-07-15T21:20:14.173Z,2.40
2017-07-15T21:29:43.818Z,2.50
2017-07-15T21:32:19.678Z,2.73
2017-07-15T21:35:14.719Z,2.73
2017-07-15T21:41:12.524Z,3.17
2017-07-15T21:59:26.551Z,3.87
2017-07-15T22:01:55.435Z,3.00
2017-07-15T22:04:23.927Z,3.40
2017-07-15T22:06:51.827Z,4.00
2017-07-15T22:09:19.731Z,3.87
2017-07-15T22:11:47.534Z,3.90
2017-07-15T22:14:15.433Z,3.30
2017-07-15T22:16:44.056Z,3.03
2017-07-15T22:19:11.942Z,2.77
2017-07-15T22:21:39.755Z,3.50
2017-07-15T22:24:08.375Z,4.00
2017-07-15T22:26:36.118Z,3.57
2017-07-15T22:29:03.966Z,3.50
2017-07-15T22:31:31.836Z,3.87
2017-07-15T22:33:59.734Z,3.73
2017-07-15T22:36:27.872Z,3.67
2017-07-15T22:38:56.478Z,4.00
2017-07-15T22:41:24.279Z,3.40
2017-07-15T22:43:52.291Z,3.37
2017-07-15T22:46:20.062Z,3.70
2017-07-15T22:48:47.819Z,3.60
2017-07-15T22:51:15.613Z,3.90
2017-07-15T22:53:44.237Z,3.50
2017-07-15T22:56:12.882Z,3.40
2017-07-15T22:58:40.687Z,2.63
2017-07-15T23:01:08.554Z,3.27
2017-07-15T23:03:37.096Z,3.60
2017-07-15T23:06:05.003Z,3.63
2017-07-15T23:08:33.516Z,3.20
2017-07-15T23:11:01.320Z,3.53
2017-07-15T23:13:29.023Z,3.47
2017-07-15T23:15:56.829Z,3.97
2017-07-15T23:18:24.688Z,3.47
2017-07-15T23:24:22.077Z,3.73
2017-07-15T23:26:49.876Z,3.30
2017-07-15T23:29:17.882Z,3.13
2017-07-15T23:31:46.497Z,3.30
2017-07-15T23:34:14.333Z,3.17
2017-07-15T23:36:42.905Z,3.67
2017-07-15T23:39:10.653Z,3.80
2017-07-15T23:41:39.199Z,3.40
2017-07-15T23:44:07.098Z,3.47
2017-07-15T23:46:35.081Z,4.10
2017-07-15T23:49:02.941Z,3.87
2017-07-15T23:51:31.020Z,4.33
2017-07-15T23:53:58.985Z,4.77
2017-07-15T23:56:26.917Z,5.40
2017-07-15T23:58:55.594Z,5.00
